createdAt,value
2024-02-27T00:00:48.072Z,9.45
2024-02-27T00:03:35.432Z,9.57
2024-02-27T00:06:22.981Z,9.55
2024-02-27T00:09:14.556Z,9.20
2024-02-27T00:12:01.954Z,8.52
2024-02-27T00:14:49.272Z,9.32
2024-02-27T00:17:36.653Z,9.13
2024-02-27T00:20:23.887Z,9.25
2024-02-27T00:23:13.322Z,9.60
2024-02-27T00:26:00.948Z,10.00
2024-02-27T00:28:48.102Z,8.80
2024-02-27T00:31:35.250Z,10.07
2024-02-27T00:34:22.488Z,9.60
2024-02-27T00:37:09.720Z,10.15
2024-02-27T00:39:57.772Z,9.40
2024-02-27T00:42:45.584Z,9.60
2024-02-27T00:45:32.973Z,9.45
2024-02-27T00:48:20.307Z,10.75
2024-02-27T00:51:07.530Z,10.43
2024-02-27T00:53:54.863Z,10.63
2024-02-27T00:56:42.210Z,10.25
2024-02-27T00:59:29.427Z,10.45
2024-02-27T01:02:16.601Z,9.90
2024-02-27T01:05:05.024Z,10.18
2024-02-27T01:07:52.274Z,10.00
2024-02-27T01:10:39.464Z,9.10
2024-02-27T01:13:27.508Z,9.77
2024-02-27T01:16:14.702Z,10.05
2024-02-27T01:19:02.012Z,10.23
2024-02-27T01:21:49.359Z,10.63
2024-02-27T01:24:37.004Z,9.95
2024-02-27T01:27:24.988Z,9.88
2024-02-27T01:30:12.696Z,9.50
2024-02-27T01:33:00.258Z,11.38
2024-02-27T01:35:48.942Z,9.68
2024-02-27T01:38:36.266Z,9.93
2024-02-27T01:41:23.503Z,10.48
2024-02-27T01:44:10.699Z,9.93
2024-02-27T01:46:59.899Z,9.98
2024-02-27T01:49:49.434Z,11.30
2024-02-27T01:52:36.782Z,9.77
2024-02-27T01:55:23.995Z,10.52
2024-02-27T01:58:13.116Z,10.15
2024-02-27T02:01:03.981Z,10.43
2024-02-27T02:03:53.427Z,9.88
2024-02-27T02:06:42.890Z,10.32
2024-02-27T02:09:30.125Z,10.13
2024-02-27T02:12:17.516Z,10.25
2024-02-27T02:15:06.224Z,10.40
2024-02-27T02:17:54.025Z,11.05
2024-02-27T02:20:41.197Z,10.32
2024-02-27T02:23:30.337Z,10.50
2024-02-27T02:26:19.599Z,10.30
2024-02-27T02:29:07.973Z,10.10
2024-02-27T02:31:55.152Z,10.38
2024-02-27T02:34:42.365Z,10.35
2024-02-27T02:37:30.554Z,10.48
2024-02-27T02:40:20.939Z,10.57
2024-02-27T02:43:08.114Z,10.00
2024-02-27T02:45:55.278Z,10.05
2024-02-27T02:48:42.540Z,10.27
2024-02-27T02:51:33.070Z,9.80
2024-02-27T02:54:20.274Z,10.43
2024-02-27T02:57:07.459Z,10.55
2024-02-27T02:59:55.666Z,9.57
2024-02-27T03:02:42.853Z,9.95
2024-02-27T03:05:30.038Z,9.50
2024-02-27T03:08:17.161Z,10.07
2024-02-27T03:11:05.902Z,9.98
2024-02-27T03:13:53.209Z,10.75
2024-02-27T03:16:40.329Z,10.15
2024-02-27T03:19:28.258Z,9.68
2024-02-27T03:22:15.608Z,10.38
2024-02-27T03:25:06.821Z,10.77
2024-02-27T03:30:42.624Z,10.95
2024-02-27T03:33:30.067Z,9.23
2024-02-27T03:36:17.535Z,10.45
2024-02-27T03:39:05.991Z,10.75
2024-02-27T03:41:53.247Z,10.23
2024-02-27T03:44:46.840Z,10.38
2024-02-27T03:47:34.084Z,11.45
2024-02-27T03:50:21.330Z,10.25
2024-02-27T03:53:08.524Z,10.68
2024-02-27T03:55:55.824Z,9.93
2024-02-27T03:58:43.017Z,10.73
2024-02-27T04:01:30.340Z,10.40
2024-02-27T04:04:17.649Z,10.13
2024-02-27T04:07:05.486Z,10.77
2024-02-27T04:09:52.712Z,11.20
2024-02-27T04:12:39.976Z,10.30
2024-02-27T04:15:27.500Z,10.07
2024-02-27T04:18:14.825Z,10.82
2024-02-27T04:21:02.254Z,10.60
2024-02-27T04:23:49.616Z,10.00
2024-02-27T04:26:36.925Z,10.38
2024-02-27T04:29:24.560Z,9.27
2024-02-27T04:32:11.909Z,9.90
2024-02-27T04:34:59.165Z,9.77
2024-02-27T04:37:46.388Z,9.70
2024-02-27T04:40:33.592Z,10.13
2024-02-27T04:43:22.109Z,9.75
2024-02-27T04:46:09.315Z,10.48
2024-02-27T04:48:56.507Z,11.07
2024-02-27T04:51:43.944Z,10.52
2024-02-27T04:54:31.126Z,9.50
2024-02-27T04:57:19.133Z,10.10
2024-02-27T05:00:11.234Z,10.60
2024-02-27T05:02:58.734Z,9.50
2024-02-27T05:05:45.906Z,10.38
2024-02-27T05:08:33.040Z,10.32
2024-02-27T05:11:20.401Z,10.52
2024-02-27T05:14:07.761Z,10.35
2024-02-27T05:16:55.291Z,11.25
2024-02-27T05:19:42.493Z,10.48
2024-02-27T05:22:29.708Z,10.15
2024-02-27T05:25:16.964Z,11.07
2024-02-27T05:28:04.583Z,10.32
2024-02-27T05:30:55.354Z,9.95
2024-02-27T05:33:42.715Z,10.75
2024-02-27T05:36:30.274Z,10.50
2024-02-27T05:39:17.996Z,10.40
2024-02-27T05:42:05.365Z,10.55
2024-02-27T05:44:52.560Z,10.43
2024-02-27T05:47:39.873Z,11.10
2024-02-27T05:50:27.228Z,11.55
2024-02-27T05:53:14.424Z,11.30
2024-02-27T05:56:02.014Z,10.95
2024-02-27T05:58:49.596Z,11.45
2024-02-27T06:01:37.299Z,10.95
2024-02-27T06:04:24.559Z,11.18
2024-02-27T06:07:12.977Z,10.77
2024-02-27T06:10:00.245Z,11.38
2024-02-27T06:12:47.466Z,11.82
2024-02-27T06:15:35.290Z,12.25
2024-02-27T06:18:22.679Z,12.30
2024-02-27T06:21:29.277Z,11.25
2024-02-27T06:24:16.551Z,12.68
2024-02-27T06:27:04.288Z,11.13
2024-02-27T06:29:51.538Z,12.13
2024-02-27T06:32:38.797Z,11.95
2024-02-27T06:35:27.117Z,12.77
2024-02-27T06:38:14.430Z,12.02
2024-02-27T06:41:01.887Z,12.80
2024-02-27T06:43:49.324Z,11.55
2024-02-27T06:46:36.494Z,11.23
2024-02-27T06:49:24.158Z,13.00
2024-02-27T06:52:11.458Z,12.70
2024-02-27T06:54:58.899Z,12.48
2024-02-27T06:57:46.850Z,12.18
2024-02-27T07:00:34.957Z,11.77
2024-02-27T07:03:22.378Z,11.70
2024-02-27T07:06:09.676Z,12.98
2024-02-27T07:08:59.541Z,11.70
2024-02-27T07:11:46.883Z,11.63
2024-02-27T07:14:34.566Z,11.23
2024-02-27T07:17:24.221Z,11.52
2024-02-27T07:20:12.359Z,12.38
2024-02-27T07:23:00.778Z,12.65
2024-02-27T07:25:48.061Z,11.73
2024-02-27T07:28:35.274Z,11.50
2024-02-27T07:31:23.299Z,12.85
2024-02-27T07:34:12.717Z,12.13
2024-02-27T07:37:01.364Z,11.38
2024-02-27T07:39:49.941Z,11.75
2024-02-27T07:42:37.755Z,12.18
2024-02-27T07:45:25.167Z,11.68
2024-02-27T07:48:12.541Z,11.77
2024-02-27T07:50:59.816Z,11.85
2024-02-27T07:53:47.295Z,11.40
2024-02-27T07:56:34.551Z,11.50
2024-02-27T07:59:21.763Z,11.32
2024-02-27T08:02:08.953Z,11.30
2024-02-27T08:04:56.110Z,12.18
2024-02-27T08:07:43.374Z,11.63
2024-02-27T08:10:30.736Z,10.90
2024-02-27T08:13:20.620Z,11.43
2024-02-27T08:16:10.089Z,10.88
2024-02-27T08:18:57.415Z,11.57
2024-02-27T08:21:44.784Z,12.02
2024-02-27T08:24:34.292Z,10.20
2024-02-27T08:27:21.635Z,11.77
2024-02-27T08:30:09.616Z,11.00
2024-02-27T08:32:58.847Z,11.20
2024-02-27T08:35:46.244Z,11.30
2024-02-27T08:38:34.100Z,10.25
2024-02-27T08:41:22.791Z,11.57
2024-02-27T08:44:10.083Z,10.75
2024-02-27T08:47:00.285Z,10.40
2024-02-27T08:49:47.695Z,10.05
2024-02-27T08:52:35.059Z,11.00
2024-02-27T08:55:26.171Z,9.95
2024-02-27T08:58:13.429Z,10.18
2024-02-27T09:01:00.727Z,9.45
2024-02-27T09:03:50.156Z,9.20
2024-02-27T09:06:44.405Z,9.98
2024-02-27T09:09:31.673Z,9.82
2024-02-27T09:12:19.061Z,10.27
2024-02-27T09:15:09.009Z,9.70
2024-02-27T09:17:56.533Z,9.45
2024-02-27T09:20:44.736Z,9.50
2024-02-27T09:23:32.008Z,9.50
2024-02-27T09:26:19.222Z,9.93
2024-02-27T09:29:06.387Z,9.02
2024-02-27T09:31:53.592Z,9.57
2024-02-27T09:34:42.379Z,8.45
2024-02-27T09:37:29.706Z,9.48
2024-02-27T09:40:17.294Z,9.30
2024-02-27T09:43:15.126Z,9.13
2024-02-27T09:46:06.086Z,8.73
2024-02-27T09:48:56.889Z,8.75
2024-02-27T09:51:47.462Z,9.73
2024-02-27T09:54:37.431Z,9.25
2024-02-27T09:57:27.369Z,8.95
2024-02-27T10:00:18.412Z,9.07
2024-02-27T10:03:09.109Z,9.13
2024-02-27T10:05:57.986Z,9.10
2024-02-27T10:08:57.105Z,9.05
2024-02-27T10:11:45.379Z,9.02
2024-02-27T10:14:37.404Z,10.68
2024-02-27T10:17:25.125Z,9.82
2024-02-27T10:20:12.623Z,10.75
2024-02-27T10:23:00.272Z,10.90
2024-02-27T10:25:47.528Z,9.82
2024-02-27T10:28:35.816Z,9.38
2024-02-27T10:31:23.077Z,9.02
2024-02-27T10:34:10.472Z,8.80
2024-02-27T10:37:00.988Z,8.75
2024-02-27T10:39:48.590Z,9.85
2024-02-27T10:42:38.662Z,8.27
2024-02-27T10:45:26.313Z,8.30
2024-02-27T10:48:14.557Z,8.90
2024-02-27T10:51:03.716Z,8.52
2024-02-27T10:53:54.112Z,9.13
2024-02-27T10:56:41.956Z,9.68
2024-02-27T10:59:32.907Z,8.82
2024-02-27T11:02:21.496Z,9.07
2024-02-27T11:05:12.467Z,7.72
2024-02-27T11:08:01.426Z,8.23
2024-02-27T11:10:49.364Z,9.05
2024-02-27T11:13:42.675Z,8.77
2024-02-27T11:16:32.224Z,9.27
2024-02-27T11:19:26.081Z,8.05
2024-02-27T11:22:14.004Z,8.55
2024-02-27T11:25:01.611Z,7.47
2024-02-27T11:27:51.876Z,8.82
2024-02-27T11:30:41.794Z,8.20
2024-02-27T11:33:29.040Z,9.05
2024-02-27T11:36:16.412Z,7.80
2024-02-27T11:39:03.753Z,7.63
2024-02-27T11:41:52.883Z,8.32
2024-02-27T11:45:10.256Z,8.18
2024-02-27T11:47:57.586Z,8.60
2024-02-27T11:50:46.769Z,8.40
2024-02-27T11:53:34.782Z,7.78
2024-02-27T11:56:24.373Z,8.05
2024-02-27T11:59:12.998Z,8.23
2024-02-27T12:02:05.417Z,8.75
2024-02-27T12:04:54.953Z,8.73
2024-02-27T12:07:42.323Z,9.15
2024-02-27T12:10:30.033Z,9.27
2024-02-27T12:13:17.833Z,9.38
2024-02-27T12:16:06.185Z,9.00
2024-02-27T12:18:55.532Z,8.52
2024-02-27T12:21:43.349Z,7.82
2024-02-27T12:24:30.591Z,8.45
2024-02-27T12:27:18.008Z,8.23
2024-02-27T12:30:14.314Z,8.40
2024-02-27T12:33:02.718Z,8.85
2024-02-27T12:35:49.865Z,8.82
2024-02-27T12:38:38.131Z,8.73
2024-02-27T12:41:26.388Z,9.02
2024-02-27T12:44:14.879Z,7.78
2024-02-27T12:47:02.166Z,8.02
2024-02-27T12:49:49.592Z,8.48
2024-02-27T12:52:38.403Z,9.13
2024-02-27T12:55:26.956Z,9.10
2024-02-27T12:58:24.769Z,8.63
2024-02-27T13:01:12.822Z,8.82
2024-02-27T13:04:00.232Z,8.68
2024-02-27T13:06:47.707Z,9.10
2024-02-27T13:09:35.133Z,9.00
2024-02-27T13:12:22.449Z,8.80
2024-02-27T13:15:09.888Z,8.65
2024-02-27T13:17:57.121Z,9.38
2024-02-27T13:20:46.820Z,8.48
2024-02-27T13:23:34.215Z,8.82
2024-02-27T13:26:22.195Z,8.85
2024-02-27T13:29:09.342Z,9.82
2024-02-27T13:31:56.673Z,9.63
2024-02-27T13:34:47.101Z,10.27
2024-02-27T13:37:36.144Z,9.77
2024-02-27T13:40:23.495Z,9.23
2024-02-27T13:43:11.491Z,10.57
2024-02-27T13:46:00.564Z,9.18
2024-02-27T13:48:49.791Z,9.40
2024-02-27T13:51:41.978Z,9.13
2024-02-27T13:54:29.504Z,11.07
2024-02-27T13:57:16.777Z,9.80
2024-02-27T14:00:06.206Z,9.82
2024-02-27T14:02:59.763Z,9.38
2024-02-27T14:05:47.147Z,10.07
2024-02-27T14:08:35.320Z,10.25
2024-02-27T14:11:23.061Z,9.55
2024-02-27T14:14:17.351Z,9.27
2024-02-27T14:17:08.516Z,9.23
2024-02-27T14:19:55.871Z,9.30
2024-02-27T14:22:43.170Z,10.85
2024-02-27T14:25:30.358Z,10.85
2024-02-27T14:28:17.683Z,11.07
2024-02-27T14:31:04.954Z,10.02
2024-02-27T14:33:52.221Z,10.82
2024-02-27T14:36:39.578Z,10.85
2024-02-27T14:39:27.192Z,10.07
2024-02-27T14:42:14.553Z,10.23
2024-02-27T14:45:02.951Z,10.07
2024-02-27T14:47:50.314Z,10.70
2024-02-27T14:50:37.522Z,10.60
2024-02-27T14:53:24.694Z,9.40
2024-02-27T14:56:11.980Z,8.40
2024-02-27T14:58:59.273Z,7.68
2024-02-27T15:01:53.832Z,7.82
2024-02-27T15:04:47.384Z,7.95
2024-02-27T15:07:34.844Z,8.82
2024-02-27T15:10:22.094Z,8.27
2024-02-27T15:13:10.770Z,7.80
2024-02-27T15:15:58.183Z,7.88
2024-02-27T15:18:45.532Z,8.02
2024-02-27T15:21:33.296Z,8.15
2024-02-27T15:24:20.670Z,7.68
2024-02-27T15:27:08.081Z,8.07
2024-02-27T15:29:56.860Z,7.93
2024-02-27T15:32:44.171Z,7.90
2024-02-27T15:35:31.414Z,7.95
2024-02-27T15:38:18.662Z,7.85
2024-02-27T15:41:05.967Z,8.38
2024-02-27T15:43:54.919Z,8.15
2024-02-27T15:46:43.329Z,8.50
2024-02-27T15:49:31.072Z,8.25
2024-02-27T15:52:19.098Z,8.35
2024-02-27T15:55:06.470Z,8.73
2024-02-27T15:57:53.840Z,8.30
2024-02-27T16:00:41.311Z,8.18
2024-02-27T16:03:52.333Z,9.35
2024-02-27T16:07:08.483Z,9.43
2024-02-27T16:09:55.748Z,8.77
2024-02-27T16:12:45.087Z,8.70
2024-02-27T16:15:32.487Z,9.48
2024-02-27T16:18:19.881Z,9.45
2024-02-27T16:21:19.840Z,10.40
2024-02-27T16:24:09.295Z,9.57
2024-02-27T16:26:58.220Z,9.85
2024-02-27T16:29:45.558Z,10.13
2024-02-27T16:32:32.750Z,9.77
2024-02-27T16:35:20.051Z,9.90
2024-02-27T16:38:07.258Z,10.82
2024-02-27T16:40:54.566Z,11.30
2024-02-27T16:43:41.836Z,10.57
2024-02-27T16:46:29.801Z,12.15
2024-02-27T16:49:17.209Z,10.57
2024-02-27T16:52:04.850Z,11.50
2024-02-27T16:54:52.495Z,10.77
2024-02-27T16:57:39.870Z,12.10
2024-02-27T17:00:27.309Z,13.65
2024-02-27T17:03:14.656Z,13.13
2024-02-27T17:06:04.432Z,13.18
2024-02-27T17:08:51.813Z,14.45
2024-02-27T17:11:39.185Z,13.82
2024-02-27T17:14:26.441Z,13.25
2024-02-27T17:17:14.636Z,12.35
2024-02-27T17:20:02.138Z,12.43
2024-02-27T17:22:49.298Z,14.20
2024-02-27T17:25:36.651Z,14.30
2024-02-27T17:28:23.853Z,14.32
2024-02-27T17:31:11.086Z,15.40
2024-02-27T17:33:59.485Z,15.02
2024-02-27T17:36:47.064Z,17.10
2024-02-27T17:39:34.380Z,14.07
2024-02-27T17:42:23.159Z,13.32
2024-02-27T17:45:11.125Z,12.95
2024-02-27T17:47:58.500Z,13.95
2024-02-27T17:50:45.761Z,12.95
2024-02-27T17:53:33.035Z,13.77
2024-02-27T17:56:20.603Z,12.65
2024-02-27T17:59:07.866Z,13.38
2024-02-27T18:01:55.145Z,12.95
2024-02-27T18:04:42.887Z,13.13
2024-02-27T18:07:30.412Z,12.50
2024-02-27T18:10:20.561Z,12.57
2024-02-27T18:13:07.853Z,13.10
2024-02-27T18:15:55.111Z,12.27
2024-02-27T18:18:43.837Z,12.57
2024-02-27T18:21:31.131Z,12.93
2024-02-27T18:24:18.686Z,12.90
2024-02-27T18:27:06.508Z,13.35
2024-02-27T18:29:53.829Z,14.10
2024-02-27T18:32:41.908Z,12.75
2024-02-27T18:35:31.434Z,13.13
2024-02-27T18:38:21.023Z,13.82
2024-02-27T18:41:08.482Z,13.68
2024-02-27T18:43:55.773Z,14.45
2024-02-27T18:46:43.056Z,15.38
2024-02-27T18:49:30.408Z,15.32
2024-02-27T18:52:19.143Z,14.73
2024-02-27T18:55:06.580Z,14.95
2024-02-27T18:57:53.869Z,12.82
2024-02-27T19:00:41.489Z,14.93
2024-02-27T19:03:28.866Z,15.95
2024-02-27T19:06:16.195Z,16.00
2024-02-27T19:09:03.752Z,15.63
2024-02-27T19:11:51.561Z,15.57
2024-02-27T19:14:39.043Z,14.02
2024-02-27T19:17:26.518Z,13.10
2024-02-27T19:20:13.774Z,15.48
2024-02-27T19:23:01.040Z,14.50
2024-02-27T19:25:48.252Z,14.95
2024-02-27T19:28:40.725Z,15.77
2024-02-27T19:31:31.541Z,14.77
2024-02-27T19:34:18.819Z,16.05
2024-02-27T19:37:05.992Z,18.10
2024-02-27T19:39:53.581Z,16.17
2024-02-27T19:42:40.912Z,16.05
2024-02-27T19:45:28.276Z,15.38
2024-02-27T19:48:16.617Z,16.17
2024-02-27T19:51:04.294Z,15.35
2024-02-27T19:53:53.841Z,14.65
2024-02-27T19:56:42.217Z,15.75
2024-02-27T19:59:29.778Z,15.45
2024-02-27T20:02:17.004Z,14.02
2024-02-27T20:05:04.658Z,15.63
2024-02-27T20:07:54.961Z,17.52
2024-02-27T20:10:42.239Z,15.63
2024-02-27T20:13:29.406Z,15.57
2024-02-27T20:16:18.241Z,16.17
2024-02-27T20:19:06.194Z,15.85
2024-02-27T20:21:57.401Z,17.10
2024-02-27T20:24:45.445Z,16.45
2024-02-27T20:27:32.794Z,17.35
2024-02-27T20:30:24.687Z,17.10
2024-02-27T20:33:14.074Z,17.98
2024-02-27T20:36:02.139Z,16.48
2024-02-27T20:38:49.336Z,15.80
2024-02-27T20:41:36.668Z,17.98
2024-02-27T20:44:24.951Z,16.88
2024-02-27T20:47:12.201Z,16.10
2024-02-27T20:49:59.392Z,18.30
2024-02-27T20:52:46.566Z,16.67
2024-02-27T20:55:36.325Z,16.38
2024-02-27T20:58:23.544Z,16.10
2024-02-27T21:01:10.790Z,15.88
2024-02-27T21:03:58.153Z,16.80
2024-02-27T21:06:45.575Z,16.63
2024-02-27T21:09:33.056Z,17.42
2024-02-27T21:12:20.500Z,17.65
2024-02-27T21:15:09.350Z,17.90
2024-02-27T21:17:56.633Z,18.77
2024-02-27T21:20:44.534Z,16.90
2024-02-27T21:23:31.771Z,17.67
2024-02-27T21:26:18.958Z,16.27
2024-02-27T21:29:06.303Z,17.17
2024-02-27T21:31:53.589Z,18.10
2024-02-27T21:34:41.406Z,17.13
2024-02-27T21:37:30.377Z,17.40
2024-02-27T21:40:18.518Z,16.80
2024-02-27T21:43:05.700Z,17.52
2024-02-27T21:45:52.991Z,16.98
2024-02-27T21:48:40.159Z,17.20
2024-02-27T21:51:28.644Z,18.35
2024-02-27T21:54:16.207Z,17.60
2024-02-27T21:57:03.501Z,18.50
2024-02-27T21:59:50.696Z,17.10
2024-02-27T22:02:38.900Z,17.20
2024-02-27T22:05:26.063Z,18.58
2024-02-27T22:08:13.275Z,19.52
2024-02-27T22:11:00.446Z,19.13
2024-02-27T22:13:47.624Z,18.30
2024-02-27T22:16:35.852Z,17.30
2024-02-27T22:19:23.121Z,18.67
2024-02-27T22:22:10.336Z,17.25
2024-02-27T22:24:57.528Z,18.38
2024-02-27T22:27:44.784Z,19.73
2024-02-27T22:30:31.984Z,18.73
2024-02-27T22:33:19.343Z,18.85
2024-02-27T22:36:07.478Z,17.98
2024-02-27T22:38:54.592Z,18.33
2024-02-27T22:41:41.884Z,17.92
2024-02-27T22:44:29.085Z,18.30
2024-02-27T22:47:16.245Z,18.90
2024-02-27T22:50:04.160Z,19.40
2024-02-27T22:52:51.755Z,18.35
2024-02-27T22:55:39.456Z,19.23
2024-02-27T22:58:26.808Z,19.05
2024-02-27T23:01:14.070Z,18.95
2024-02-27T23:04:01.242Z,17.85
2024-02-27T23:06:48.429Z,20.63
2024-02-27T23:09:35.750Z,19.13
2024-02-27T23:12:23.098Z,19.60
2024-02-27T23:15:10.592Z,19.50
2024-02-27T23:17:57.834Z,19.52
2024-02-27T23:20:47.170Z,19.23
2024-02-27T23:23:34.464Z,21.10
2024-02-27T23:26:21.747Z,20.13
2024-02-27T23:29:09.500Z,20.08
2024-02-27T23:31:56.672Z,19.65
2024-02-27T23:34:43.918Z,18.58
2024-02-27T23:37:31.284Z,20.48
2024-02-27T23:40:19.115Z,21.55
2024-02-27T23:43:06.340Z,20.23
2024-02-27T23:45:54.678Z,19.75
2024-02-27T23:48:42.048Z,18.67
2024-02-27T23:51:29.558Z,20.70
2024-02-27T23:54:16.772Z,18.55
2024-02-27T23:57:06.045Z,19.08
2024-02-27T23:59:53.905Z,20.85
